createdAt,value
2019-06-07T00:00:53.968Z,1009.46
2019-06-07T00:01:53.943Z,1009.48
2019-06-07T00:02:53.972Z,1009.44
2019-06-07T00:03:53.920Z,1009.47
2019-06-07T00:04:53.909Z,1009.42
2019-06-07T00:05:53.957Z,1009.41
2019-06-07T00:06:53.895Z,1009.40
2019-06-07T00:07:53.875Z,1009.37
2019-06-07T00:08:53.910Z,1009.39
2019-06-07T00:09:53.855Z,1009.36
2019-06-07T00:10:53.846Z,1009.42
2019-06-07T00:12:02.651Z,1009.41
2019-06-07T00:12:53.820Z,1009.39
2019-06-07T00:13:53.806Z,1009.37
2019-06-07T00:14:53.828Z,1009.38
2019-06-07T00:15:53.825Z,1009.42
2019-06-07T00:16:53.775Z,1009.39
2019-06-07T00:17:53.776Z,1009.37
2019-06-07T00:18:53.778Z,1009.40
2019-06-07T00:19:53.740Z,1009.38
2019-06-07T00:20:53.728Z,1009.36
2019-06-07T00:22:15.577Z,1009.38
2019-06-07T00:22:54.726Z,1009.36
2019-06-07T00:23:53.734Z,1009.37
2019-06-07T00:24:53.685Z,1009.38
2019-06-07T00:25:53.668Z,1009.38
2019-06-07T00:26:58.759Z,1009.35
2019-06-07T00:27:54.646Z,1009.37
2019-06-07T00:28:53.655Z,1009.32
2019-06-07T00:29:53.662Z,1009.32
2019-06-07T00:30:53.614Z,1009.27
2019-06-07T00:31:53.603Z,1009.33
2019-06-07T00:32:53.589Z,1009.31
2019-06-07T00:33:53.597Z,1009.25
2019-06-07T00:34:53.577Z,1009.24
2019-06-07T00:35:53.593Z,1009.25
2019-06-07T00:36:53.558Z,1009.30
2019-06-07T00:37:53.534Z,1009.23
2019-06-07T00:38:53.538Z,1009.20
2019-06-07T00:40:13.272Z,1009.18
2019-06-07T00:40:54.514Z,1009.18
2019-06-07T00:41:53.532Z,1009.20
2019-06-07T00:42:53.475Z,1009.15
2019-06-07T00:43:53.478Z,1009.17
2019-06-07T00:44:53.476Z,1009.18
2019-06-07T00:45:53.475Z,1009.15
2019-06-07T00:46:53.450Z,1009.12
2019-06-07T00:47:53.424Z,1009.14
2019-06-07T00:48:53.429Z,1009.11
2019-06-07T00:49:53.396Z,1009.14
2019-06-07T00:50:53.405Z,1009.15
2019-06-07T00:51:53.839Z,1009.10
2019-06-07T00:53:54.350Z,1009.09
2019-06-07T00:54:53.385Z,1009.08
2019-06-07T00:55:53.329Z,1009.04
2019-06-07T00:56:53.339Z,1009.03
2019-06-07T00:57:53.307Z,1009.07
2019-06-07T00:59:10.175Z,1009.08
2019-06-07T00:59:54.281Z,1009.08
2019-06-07T01:00:53.309Z,1009.09
2019-06-07T01:01:53.274Z,1009.07
2019-06-07T01:02:53.275Z,1009.04
2019-06-07T01:03:53.242Z,1009.08
2019-06-07T01:04:53.231Z,1009.08
2019-06-07T01:05:53.219Z,1009.06
2019-06-07T01:06:53.206Z,1009.06
2019-06-07T01:07:53.209Z,1009.06
2019-06-07T01:08:53.195Z,1009.05
2019-06-07T01:09:53.174Z,1009.08
2019-06-07T01:10:54.321Z,1009.08
2019-06-07T01:11:53.147Z,1009.11
2019-06-07T01:12:53.136Z,1009.03
2019-06-07T01:13:53.164Z,1009.02
2019-06-07T01:14:53.124Z,1009.05
2019-06-07T01:15:53.105Z,1009.05
2019-06-07T01:17:01.203Z,1009.02
2019-06-07T01:18:33.878Z,1008.99
2019-06-07T01:18:54.079Z,1009.01
2019-06-07T01:19:53.101Z,1009.04
2019-06-07T01:20:53.047Z,1009.02
2019-06-07T01:21:53.038Z,1008.94
2019-06-07T01:22:53.034Z,1008.94
2019-06-07T01:24:10.630Z,1008.92
2019-06-07T01:24:54.041Z,1008.88
2019-06-07T01:25:53.027Z,1008.89
2019-06-07T01:26:52.980Z,1008.85
2019-06-07T01:27:52.970Z,1008.86
2019-06-07T01:28:52.958Z,1008.83
2019-06-07T01:29:52.976Z,1008.87
2019-06-07T01:30:52.931Z,1008.85
2019-06-07T01:31:52.963Z,1008.84
2019-06-07T01:32:52.908Z,1008.82
2019-06-07T01:33:52.900Z,1008.82
2019-06-07T01:34:52.886Z,1008.82
2019-06-07T01:35:52.888Z,1008.82
2019-06-07T01:36:52.870Z,1008.79
2019-06-07T01:37:52.850Z,1008.79
2019-06-07T01:38:52.862Z,1008.77
2019-06-07T01:39:52.832Z,1008.74
2019-06-07T01:40:52.834Z,1008.73
2019-06-07T01:41:52.807Z,1008.70
2019-06-07T01:42:52.800Z,1008.73
2019-06-07T01:43:52.797Z,1008.69
2019-06-07T01:44:52.795Z,1008.65
2019-06-07T01:45:52.774Z,1008.65
2019-06-07T01:46:52.771Z,1008.65
2019-06-07T01:47:52.749Z,1008.62
2019-06-07T01:48:52.741Z,1008.60
2019-06-07T01:49:52.716Z,1008.62
2019-06-07T01:50:52.753Z,1008.58
2019-06-07T01:51:52.707Z,1008.58
2019-06-07T01:52:52.686Z,1008.62
2019-06-07T01:54:41.558Z,1008.58
2019-06-07T01:54:58.427Z,1008.59
2019-06-07T01:55:53.667Z,1008.55
2019-06-07T01:56:52.639Z,1008.56
2019-06-07T01:57:52.656Z,1008.60
2019-06-07T01:58:52.613Z,1008.62
2019-06-07T01:59:52.600Z,1008.58
2019-06-07T02:00:52.596Z,1008.58
2019-06-07T02:01:52.593Z,1008.56
2019-06-07T02:02:52.575Z,1008.53
2019-06-07T02:03:52.566Z,1008.45
2019-06-07T02:04:52.577Z,1008.48
2019-06-07T02:05:52.547Z,1008.47
2019-06-07T02:06:52.528Z,1008.47
2019-06-07T02:07:52.524Z,1008.48
2019-06-07T02:08:52.502Z,1008.49
2019-06-07T02:09:52.495Z,1008.44
2019-06-07T02:10:52.502Z,1008.45
2019-06-07T02:11:52.468Z,1008.45
2019-06-07T02:12:52.474Z,1008.47
2019-06-07T02:13:52.448Z,1008.50
2019-06-07T02:14:52.436Z,1008.49
2019-06-07T02:15:52.421Z,1008.56
2019-06-07T02:16:52.442Z,1008.56
2019-06-07T02:17:52.403Z,1008.57
2019-06-07T02:19:01.579Z,1008.56
2019-06-07T02:19:53.426Z,1008.52
2019-06-07T02:20:52.366Z,1008.54
2019-06-07T02:21:52.409Z,1008.50
2019-06-07T02:22:52.353Z,1008.50
2019-06-07T02:23:52.339Z,1008.49
2019-06-07T02:25:33.994Z,1008.55
2019-06-07T02:25:53.312Z,1008.51
2019-06-07T02:26:52.362Z,1008.56
2019-06-07T02:27:52.287Z,1008.53
2019-06-07T02:28:52.276Z,1008.49
2019-06-07T02:29:52.277Z,1008.46
2019-06-07T02:30:59.800Z,1008.46
2019-06-07T02:31:53.245Z,1008.41
2019-06-07T02:32:52.238Z,1008.43
2019-06-07T02:33:52.258Z,1008.41
2019-06-07T02:34:52.233Z,1008.42
2019-06-07T02:35:52.201Z,1008.42
2019-06-07T02:36:52.187Z,1008.41
2019-06-07T02:37:52.173Z,1008.38
2019-06-07T02:38:52.169Z,1008.45
2019-06-07T02:39:52.154Z,1008.39
2019-06-07T02:40:52.185Z,1008.42
2019-06-07T02:41:52.127Z,1008.45
2019-06-07T02:42:52.119Z,1008.48
2019-06-07T02:43:52.112Z,1008.49
2019-06-07T02:44:52.095Z,1008.54
2019-06-07T02:45:52.116Z,1008.50
2019-06-07T02:46:52.129Z,1008.50
2019-06-07T02:47:52.062Z,1008.50
2019-06-07T02:48:52.062Z,1008.48
2019-06-07T02:49:52.038Z,1008.47
2019-06-07T02:50:52.048Z,1008.39
2019-06-07T02:51:52.028Z,1008.42
2019-06-07T02:52:52.041Z,1008.45
2019-06-07T02:53:51.998Z,1008.41
2019-06-07T02:54:52.003Z,1008.38
2019-06-07T02:56:35.359Z,1008.42
2019-06-07T02:56:58.735Z,1008.44
2019-06-07T02:57:52.951Z,1008.36
2019-06-07T02:58:51.935Z,1008.41
2019-06-07T03:00:07.100Z,1008.40
2019-06-07T03:01:07.637Z,1008.42
2019-06-07T03:01:52.971Z,1008.42
2019-06-07T03:02:51.962Z,1008.40
2019-06-07T03:03:51.900Z,1008.42
2019-06-07T03:04:51.876Z,1008.38
2019-06-07T03:05:51.878Z,1008.38
2019-06-07T03:06:51.851Z,1008.37
2019-06-07T03:07:51.842Z,1008.40
2019-06-07T03:08:51.854Z,1008.37
2019-06-07T03:09:51.815Z,1008.36
2019-06-07T03:10:51.802Z,1008.34
2019-06-07T03:11:51.841Z,1008.35
2019-06-07T03:12:51.782Z,1008.32
2019-06-07T03:13:51.788Z,1008.29
2019-06-07T03:14:51.775Z,1008.26
2019-06-07T03:15:51.753Z,1008.31
2019-06-07T03:16:51.749Z,1008.31
2019-06-07T03:17:51.737Z,1008.23
2019-06-07T03:18:51.714Z,1008.26
2019-06-07T03:19:51.748Z,1008.25
2019-06-07T03:21:05.021Z,1008.27
2019-06-07T03:21:52.685Z,1008.31
2019-06-07T03:22:51.684Z,1008.29
2019-06-07T03:23:51.660Z,1008.32
2019-06-07T03:24:51.647Z,1008.35
2019-06-07T03:25:51.660Z,1008.34
2019-06-07T03:27:52.634Z,1008.41
2019-06-07T03:28:51.607Z,1008.35
2019-06-07T03:29:51.603Z,1008.41
2019-06-07T03:31:01.619Z,1008.44
2019-06-07T03:31:52.654Z,1008.42
2019-06-07T03:32:52.143Z,1008.40
2019-06-07T03:33:51.565Z,1008.44
2019-06-07T03:34:51.534Z,1008.45
2019-06-07T03:35:51.612Z,1008.39
2019-06-07T03:36:51.516Z,1008.45
2019-06-07T03:37:51.529Z,1008.43
2019-06-07T03:38:51.490Z,1008.40
2019-06-07T03:39:51.481Z,1008.43
2019-06-07T03:40:51.480Z,1008.44
2019-06-07T03:42:05.799Z,1008.46
2019-06-07T03:42:52.461Z,1008.52
2019-06-07T03:43:51.436Z,1008.44
2019-06-07T03:44:51.512Z,1008.46
2019-06-07T03:45:51.414Z,1008.43
2019-06-07T03:46:51.433Z,1008.55
2019-06-07T03:47:52.453Z,1008.53
2019-06-07T03:48:51.417Z,1008.50
2019-06-07T03:49:51.368Z,1008.50
2019-06-07T03:51:04.220Z,1008.51
2019-06-07T03:51:52.343Z,1008.55
2019-06-07T03:52:51.664Z,1008.51
2019-06-07T03:53:51.357Z,1008.50
2019-06-07T03:54:51.310Z,1008.47
2019-06-07T03:55:51.361Z,1008.45
2019-06-07T03:56:51.306Z,1008.43
2019-06-07T03:58:52.283Z,1008.41
2019-06-07T03:59:51.253Z,1008.44
2019-06-07T04:00:51.246Z,1008.45
2019-06-07T04:01:51.244Z,1008.43
2019-06-07T04:02:51.272Z,1008.47
2019-06-07T04:03:52.020Z,1008.42
2019-06-07T04:04:51.207Z,1008.43
2019-06-07T04:05:51.219Z,1008.42
2019-06-07T04:06:51.324Z,1008.41
2019-06-07T04:07:51.175Z,1008.46
2019-06-07T04:08:51.173Z,1008.43
2019-06-07T04:09:51.148Z,1008.41
2019-06-07T04:10:59.702Z,1008.42
2019-06-07T04:11:52.115Z,1008.43
2019-06-07T04:12:51.124Z,1008.43
2019-06-07T04:13:51.139Z,1008.42
2019-06-07T04:14:51.111Z,1008.43
2019-06-07T04:15:51.309Z,1008.43
2019-06-07T04:16:51.320Z,1008.43
2019-06-07T04:18:01.758Z,1008.44
2019-06-07T04:18:52.067Z,1008.50
2019-06-07T04:19:51.026Z,1008.47
2019-06-07T04:20:52.332Z,1008.50
2019-06-07T04:21:51.038Z,1008.44
2019-06-07T04:22:50.992Z,1008.49
2019-06-07T04:23:50.995Z,1008.48
2019-06-07T04:24:51.006Z,1008.48
2019-06-07T04:25:50.994Z,1008.42
2019-06-07T04:26:50.978Z,1008.41
2019-06-07T04:27:51.214Z,1008.34
2019-06-07T04:30:06.340Z,1008.30
2019-06-07T04:30:52.187Z,1008.28
2019-06-07T04:31:50.895Z,1008.29
2019-06-07T04:32:50.944Z,1008.30
2019-06-07T04:33:50.891Z,1008.35
2019-06-07T04:34:50.884Z,1008.36
2019-06-07T04:35:50.883Z,1008.33
2019-06-07T04:36:58.818Z,1008.36
2019-06-07T04:37:51.826Z,1008.32
2019-06-07T04:38:50.836Z,1008.36
2019-06-07T04:39:50.805Z,1008.35
2019-06-07T04:40:50.853Z,1008.34
2019-06-07T04:41:50.780Z,1008.33
2019-06-07T04:42:50.828Z,1008.35
2019-06-07T04:43:50.755Z,1008.34
2019-06-07T04:44:50.764Z,1008.37
2019-06-07T04:45:51.486Z,1008.38
2019-06-07T04:46:50.726Z,1008.35
2019-06-07T04:47:50.729Z,1008.33
2019-06-07T04:48:50.707Z,1008.33
2019-06-07T04:49:50.699Z,1008.26
2019-06-07T04:50:50.690Z,1008.28
2019-06-07T04:51:50.670Z,1008.23
2019-06-07T04:52:50.705Z,1008.35
2019-06-07T04:53:50.646Z,1008.26
2019-06-07T04:54:50.663Z,1008.26
2019-06-07T04:55:50.651Z,1008.27
2019-06-07T04:56:50.616Z,1008.23
2019-06-07T04:57:50.811Z,1008.27
2019-06-07T04:58:50.589Z,1008.23
2019-06-07T05:00:22.631Z,1008.25
2019-06-07T05:00:58.414Z,1008.18
2019-06-07T05:01:51.571Z,1008.20
2019-06-07T05:02:50.563Z,1008.29
2019-06-07T05:03:50.533Z,1008.22
2019-06-07T05:04:50.525Z,1008.20
2019-06-07T05:05:50.523Z,1008.18
2019-06-07T05:06:50.530Z,1008.17
2019-06-07T05:07:50.504Z,1008.18
2019-06-07T05:08:50.473Z,1008.17
2019-06-07T05:09:50.496Z,1008.18
2019-06-07T05:10:50.453Z,1008.16
2019-06-07T05:11:50.467Z,1008.13
2019-06-07T05:12:50.447Z,1008.11
2019-06-07T05:13:50.462Z,1008.09
2019-06-07T05:14:50.429Z,1008.05
2019-06-07T05:15:50.396Z,1008.07
2019-06-07T05:16:50.394Z,1008.04
2019-06-07T05:17:50.379Z,1008.01
2019-06-07T05:18:50.377Z,1007.99
2019-06-07T05:19:50.351Z,1007.99
2019-06-07T05:20:50.364Z,1007.98
2019-06-07T05:22:03.659Z,1007.94
2019-06-07T05:22:51.313Z,1007.93
2019-06-07T05:24:10.098Z,1007.89
2019-06-07T05:24:51.305Z,1007.87
2019-06-07T05:25:50.281Z,1007.88
2019-06-07T05:26:50.272Z,1007.89
2019-06-07T05:27:50.298Z,1007.88
2019-06-07T05:28:50.250Z,1007.88
2019-06-07T05:30:08.722Z,1007.79
2019-06-07T05:31:03.385Z,1007.78
2019-06-07T05:31:51.227Z,1007.84
2019-06-07T05:32:50.206Z,1007.88
2019-06-07T05:33:50.274Z,1007.86
2019-06-07T05:34:50.179Z,1007.88
2019-06-07T05:35:50.169Z,1007.86
2019-06-07T05:37:10.508Z,1007.86
2019-06-07T05:37:51.147Z,1007.84
2019-06-07T05:38:50.140Z,1007.86
2019-06-07T05:39:50.138Z,1007.86
2019-06-07T05:40:50.122Z,1007.83
2019-06-07T05:41:50.101Z,1007.79
2019-06-07T05:42:50.108Z,1007.82
2019-06-07T05:44:11.300Z,1007.80
2019-06-07T05:44:51.077Z,1007.76
2019-06-07T05:45:50.062Z,1007.77
2019-06-07T05:46:50.104Z,1007.81
2019-06-07T05:47:51.167Z,1007.76
2019-06-07T05:48:50.024Z,1007.77
2019-06-07T05:49:50.067Z,1007.70
2019-06-07T05:50:56.891Z,1007.68
2019-06-07T05:51:51.016Z,1007.69
2019-06-07T05:52:49.977Z,1007.71
2019-06-07T05:53:49.974Z,1007.73
2019-06-07T05:54:49.969Z,1007.68
2019-06-07T05:55:49.940Z,1007.70
2019-06-07T05:56:49.943Z,1007.75
2019-06-07T05:57:51.231Z,1007.71
2019-06-07T05:58:49.912Z,1007.75
2019-06-07T05:59:49.907Z,1007.78
2019-06-07T06:00:51.086Z,1007.80
2019-06-07T06:02:02.113Z,1007.82
2019-06-07T06:03:04.292Z,1007.81
2019-06-07T06:03:50.863Z,1007.87
2019-06-07T06:04:49.971Z,1007.79
2019-06-07T06:05:54.949Z,1007.81
2019-06-07T06:06:50.881Z,1007.82
2019-06-07T06:07:50.980Z,1007.79
2019-06-07T06:08:49.803Z,1007.82
2019-06-07T06:09:49.791Z,1007.80
2019-06-07T06:10:49.786Z,1007.77
2019-06-07T06:12:51.650Z,1007.75
2019-06-07T06:14:06.461Z,1007.71
2019-06-07T06:14:50.904Z,1007.67
2019-06-07T06:16:00.862Z,1007.68
2019-06-07T06:16:51.259Z,1007.74
2019-06-07T06:17:53.675Z,1007.69
2019-06-07T06:18:49.773Z,1007.69
2019-06-07T06:19:53.215Z,1007.68
2019-06-07T06:21:09.786Z,1007.64
2019-06-07T06:21:50.715Z,1007.68
2019-06-07T06:22:51.148Z,1007.65
2019-06-07T06:23:51.882Z,1007.66
2019-06-07T06:25:29.896Z,1007.65
2019-06-07T06:25:56.473Z,1007.65
2019-06-07T06:26:55.211Z,1007.65
2019-06-07T06:28:10.192Z,1007.63
2019-06-07T06:28:50.577Z,1007.59
2019-06-07T06:29:50.296Z,1007.58
2019-06-07T06:30:50.042Z,1007.68
2019-06-07T06:32:39.782Z,1007.60
2019-06-07T06:32:57.531Z,1007.61
2019-06-07T06:33:50.523Z,1007.57
2019-06-07T06:34:53.446Z,1007.58
2019-06-07T06:35:51.054Z,1007.57
2019-06-07T06:36:50.429Z,1007.59
2019-06-07T06:37:52.978Z,1007.52
2019-06-07T06:38:51.306Z,1007.49
2019-06-07T06:39:50.181Z,1007.52
2019-06-07T06:41:05.007Z,1007.48
2019-06-07T06:42:00.860Z,1007.50
2019-06-07T06:42:50.656Z,1007.48
2019-06-07T06:43:52.309Z,1007.45
2019-06-07T06:44:53.814Z,1007.42
2019-06-07T06:45:50.638Z,1007.45
2019-06-07T06:46:57.272Z,1007.43
2019-06-07T06:47:50.715Z,1007.40
2019-06-07T06:48:54.877Z,1007.36
2019-06-07T06:49:54.373Z,1007.37
2019-06-07T06:50:52.332Z,1007.43
2019-06-07T06:51:53.260Z,1007.39
2019-06-07T06:52:54.217Z,1007.46
2019-06-07T06:53:52.524Z,1007.41
2019-06-07T06:54:59.342Z,1007.44
2019-06-07T06:55:51.445Z,1007.43
2019-06-07T06:56:51.922Z,1007.46
2019-06-07T06:57:51.389Z,1007.45
2019-06-07T06:59:27.339Z,1007.44
2019-06-07T06:59:52.551Z,1007.43
2019-06-07T07:01:05.789Z,1007.48
2019-06-07T07:01:52.480Z,1007.43
2019-06-07T07:03:39.235Z,1007.39
2019-06-07T07:04:05.231Z,1007.38
2019-06-07T07:04:53.394Z,1007.36
2019-06-07T07:05:50.844Z,1007.36
2019-06-07T07:06:50.616Z,1007.33
2019-06-07T07:07:52.609Z,1007.36
2019-06-07T07:08:50.891Z,1007.36
2019-06-07T07:09:52.342Z,1007.33
2019-06-07T07:10:53.116Z,1007.38
2019-06-07T07:12:00.731Z,1007.40
2019-06-07T07:12:52.459Z,1007.33
2019-06-07T07:13:53.280Z,1007.31
2019-06-07T07:14:52.944Z,1007.36
2019-06-07T07:15:55.172Z,1007.40
2019-06-07T07:16:54.466Z,1007.35
2019-06-07T07:18:03.764Z,1007.32
2019-06-07T07:18:52.897Z,1007.28
2019-06-07T07:19:50.417Z,1007.28
2019-06-07T07:20:51.338Z,1007.28
2019-06-07T07:21:52.962Z,1007.27
2019-06-07T07:22:53.597Z,1007.21
2019-06-07T07:24:12.392Z,1007.25
2019-06-07T07:24:53.353Z,1007.22
2019-06-07T07:25:55.548Z,1007.20
2019-06-07T07:26:52.726Z,1007.25
2019-06-07T07:27:52.129Z,1007.23
2019-06-07T07:28:51.820Z,1007.19
2019-06-07T07:30:00.102Z,1007.18
2019-06-07T07:30:54.441Z,1007.16
2019-06-07T07:31:52.395Z,1007.11
2019-06-07T07:32:50.693Z,1007.14
2019-06-07T07:34:52.625Z,1007.12
2019-06-07T07:36:10.853Z,1007.10
2019-06-07T07:36:52.969Z,1007.12
2019-06-07T07:37:57.010Z,1007.10
2019-06-07T07:38:56.619Z,1007.12
2019-06-07T07:39:53.385Z,1007.13
2019-06-07T07:41:09.039Z,1007.05
2019-06-07T07:42:13.745Z,1007.00
2019-06-07T07:42:52.742Z,1007.00
2019-06-07T07:43:59.398Z,1007.01
2019-06-07T07:44:53.313Z,1006.99
2019-06-07T07:45:57.309Z,1006.88
2019-06-07T07:46:53.814Z,1007.00
2019-06-07T07:48:02.077Z,1006.98
2019-06-07T07:48:52.982Z,1006.88
2019-06-07T07:49:53.988Z,1006.92
2019-06-07T07:50:53.705Z,1006.90
2019-06-07T07:51:52.801Z,1006.90
2019-06-07T07:52:59.212Z,1007.06
2019-06-07T07:54:08.355Z,1006.91
2019-06-07T07:54:52.051Z,1006.90
2019-06-07T07:55:53.578Z,1006.98
2019-06-07T07:56:51.443Z,1006.83
2019-06-07T07:57:49.575Z,1006.90
2019-06-07T07:58:53.705Z,1006.86
2019-06-07T08:00:08.315Z,1006.82
2019-06-07T08:00:54.978Z,1006.77
2019-06-07T08:01:53.084Z,1006.79
2019-06-07T08:02:52.977Z,1006.80
2019-06-07T08:03:50.707Z,1006.81
2019-06-07T08:05:51.323Z,1006.74
2019-06-07T08:06:49.033Z,1006.72
2019-06-07T08:07:51.939Z,1006.75
2019-06-07T08:08:51.191Z,1006.72
2019-06-07T08:09:51.479Z,1006.71
2019-06-07T08:10:53.712Z,1006.69
2019-06-07T08:11:51.601Z,1006.76
2019-06-07T08:13:01.937Z,1006.66
2019-06-07T08:13:50.603Z,1006.66
2019-06-07T08:14:51.229Z,1006.60
2019-06-07T08:15:54.446Z,1006.63
2019-06-07T08:16:49.415Z,1006.51
2019-06-07T08:17:53.855Z,1006.48
2019-06-07T08:18:52.854Z,1006.48
2019-06-07T08:19:51.286Z,1006.51
2019-06-07T08:21:08.774Z,1006.67
2019-06-07T08:21:50.598Z,1006.50
2019-06-07T08:22:49.927Z,1006.50
2019-06-07T08:23:51.637Z,1006.47
2019-06-07T08:24:50.513Z,1006.46
2019-06-07T08:25:49.126Z,1006.55
2019-06-07T08:27:12.300Z,1006.53
2019-06-07T08:27:49.537Z,1006.55
2019-06-07T08:28:49.006Z,1006.47
2019-06-07T08:30:08.893Z,1006.53
2019-06-07T08:30:55.051Z,1006.44
2019-06-07T08:31:51.785Z,1006.45
2019-06-07T08:32:52.643Z,1006.36
2019-06-07T08:33:50.172Z,1006.33
2019-06-07T08:34:49.824Z,1006.37
2019-06-07T08:36:14.204Z,1006.27
2019-06-07T08:36:49.978Z,1006.23
2019-06-07T08:38:22.075Z,1006.28
2019-06-07T08:38:52.895Z,1006.21
2019-06-07T08:39:50.374Z,1006.28
2019-06-07T08:40:54.613Z,1006.26
2019-06-07T08:42:00.129Z,1006.29
2019-06-07T08:43:10.722Z,1006.20
2019-06-07T08:43:49.231Z,1006.17
2019-06-07T08:44:49.210Z,1006.16
2019-06-07T08:45:48.045Z,1006.18
2019-06-07T08:46:48.021Z,1006.22
2019-06-07T08:47:48.014Z,1006.14
2019-06-07T08:48:48.003Z,1006.19
2019-06-07T08:49:47.993Z,1006.13
2019-06-07T08:50:47.996Z,1006.10
2019-06-07T08:51:47.991Z,1006.09
2019-06-07T08:52:47.967Z,1006.08
2019-06-07T08:54:02.829Z,1006.01
2019-06-07T08:54:48.953Z,1006.03
2019-06-07T08:55:47.965Z,1006.00
2019-06-07T08:56:47.920Z,1005.93
2019-06-07T08:57:47.925Z,1005.85
2019-06-07T08:58:47.926Z,1005.73
2019-06-07T08:59:47.917Z,1005.70
2019-06-07T09:00:48.186Z,1005.76
2019-06-07T09:01:47.850Z,1005.76
2019-06-07T09:02:47.851Z,1005.70
2019-06-07T09:03:47.875Z,1005.81
2019-06-07T09:04:47.817Z,1005.82
2019-06-07T09:05:47.833Z,1005.69
2019-06-07T09:07:06.637Z,1005.70
2019-06-07T09:08:07.099Z,1005.63
2019-06-07T09:08:48.820Z,1005.67
2019-06-07T09:09:47.793Z,1005.56
2019-06-07T09:10:47.778Z,1005.58
2019-06-07T09:11:47.741Z,1005.58
2019-06-07T09:12:47.774Z,1005.63
2019-06-07T09:13:47.730Z,1005.66
2019-06-07T09:14:59.717Z,1005.60
2019-06-07T09:15:48.766Z,1005.60
2019-06-07T09:16:47.696Z,1005.65
2019-06-07T09:18:30.231Z,1005.49
2019-06-07T09:18:48.668Z,1005.50
2019-06-07T09:19:47.695Z,1005.58
2019-06-07T09:20:47.679Z,1005.48
2019-06-07T09:21:47.653Z,1005.48
2019-06-07T09:22:47.636Z,1005.43
2019-06-07T09:23:47.663Z,1005.39
2019-06-07T09:24:47.594Z,1005.36
2019-06-07T09:25:57.058Z,1005.48
2019-06-07T09:26:48.585Z,1005.43
2019-06-07T09:27:47.578Z,1005.38
2019-06-07T09:28:47.553Z,1005.33
2019-06-07T09:29:47.577Z,1005.28
2019-06-07T09:30:47.541Z,1005.32
2019-06-07T09:31:53.165Z,1005.39
2019-06-07T09:32:48.533Z,1005.32
2019-06-07T09:33:47.508Z,1005.22
2019-06-07T09:34:47.515Z,1005.30
2019-06-07T09:35:47.487Z,1005.31
2019-06-07T09:36:47.479Z,1005.27
2019-06-07T09:38:07.603Z,1005.17
2019-06-07T09:38:48.472Z,1005.36
2019-06-07T09:39:47.436Z,1005.29
2019-06-07T09:40:47.472Z,1005.22
2019-06-07T09:41:50.329Z,1005.17
2019-06-07T09:42:47.409Z,1005.18
2019-06-07T09:44:01.354Z,1005.11
2019-06-07T09:44:48.385Z,1005.16
2019-06-07T09:45:47.375Z,1005.12
2019-06-07T09:46:47.352Z,1005.10
2019-06-07T09:47:47.353Z,1005.02
2019-06-07T09:49:10.609Z,1005.07
2019-06-07T09:49:48.339Z,1005.05
2019-06-07T09:50:47.335Z,1005.10
2019-06-07T09:51:47.320Z,1005.04
2019-06-07T09:52:58.390Z,1005.11
2019-06-07T09:53:48.292Z,1005.09
2019-06-07T09:55:09.229Z,1005.08
2019-06-07T09:55:48.265Z,1005.03
2019-06-07T09:56:47.243Z,1005.14
2019-06-07T09:57:47.234Z,1005.05
2019-06-07T09:58:51.751Z,1004.95
2019-06-07T09:59:48.206Z,1005.01
2019-06-07T10:00:47.254Z,1004.97
2019-06-07T10:01:47.293Z,1004.99
2019-06-07T10:02:47.193Z,1004.95
2019-06-07T10:03:47.200Z,1004.89
2019-06-07T10:04:47.185Z,1004.80
2019-06-07T10:05:47.164Z,1004.81
2019-06-07T10:06:47.138Z,1004.76
2019-06-07T10:08:02.409Z,1004.70
2019-06-07T10:10:48.109Z,1004.57
2019-06-07T10:11:47.078Z,1004.58
2019-06-07T10:12:47.088Z,1004.61
2019-06-07T10:13:47.112Z,1004.58
2019-06-07T10:14:47.056Z,1004.50
2019-06-07T10:15:47.085Z,1004.47
2019-06-07T10:16:48.143Z,1004.51
2019-06-07T10:17:47.035Z,1004.46
2019-06-07T10:18:47.001Z,1004.40
2019-06-07T10:19:46.995Z,1004.43
2019-06-07T10:20:46.980Z,1004.43
2019-06-07T10:21:47.012Z,1004.33
2019-06-07T10:22:46.959Z,1004.46
2019-06-07T10:23:46.955Z,1004.45
2019-06-07T10:24:46.940Z,1004.45
2019-06-07T10:25:46.931Z,1004.34
2019-06-07T10:26:46.957Z,1004.44
2019-06-07T10:27:46.908Z,1004.44
2019-06-07T10:28:46.899Z,1004.37
2019-06-07T10:29:46.929Z,1004.31
2019-06-07T10:30:46.918Z,1004.41
2019-06-07T10:31:46.873Z,1004.32
2019-06-07T10:32:46.853Z,1004.37
2019-06-07T10:33:46.858Z,1004.34
2019-06-07T10:34:46.822Z,1004.40
2019-06-07T10:35:46.811Z,1004.42
2019-06-07T10:36:46.814Z,1004.44
2019-06-07T10:37:46.818Z,1004.37
2019-06-07T10:38:46.791Z,1004.40
2019-06-07T10:39:48.969Z,1004.43
2019-06-07T10:40:46.779Z,1004.39
2019-06-07T10:41:46.767Z,1004.34
2019-06-07T10:42:46.752Z,1004.48
2019-06-07T10:43:46.762Z,1004.43
2019-06-07T10:44:46.716Z,1004.44
2019-06-07T10:45:46.770Z,1004.53
2019-06-07T10:46:46.706Z,1004.48
2019-06-07T10:47:46.734Z,1004.53
2019-06-07T10:48:46.686Z,1004.48
2019-06-07T10:49:46.703Z,1004.41
2019-06-07T10:50:46.640Z,1004.45
2019-06-07T10:51:46.767Z,1004.53
2019-06-07T10:52:46.680Z,1004.42
2019-06-07T10:53:46.606Z,1004.39
2019-06-07T10:54:46.606Z,1004.39
2019-06-07T10:55:46.608Z,1004.37
2019-06-07T10:56:46.580Z,1004.31
2019-06-07T10:57:46.646Z,1004.36
2019-06-07T10:58:46.560Z,1004.28
2019-06-07T10:59:46.539Z,1004.15
2019-06-07T11:00:46.553Z,1004.23
2019-06-07T11:01:46.521Z,1004.17
2019-06-07T11:02:46.537Z,1004.13
2019-06-07T11:03:46.497Z,1004.11
2019-06-07T11:04:46.537Z,1004.03
2019-06-07T11:05:46.480Z,1003.98
2019-06-07T11:06:46.459Z,1003.97
2019-06-07T11:07:46.508Z,1004.01
2019-06-07T11:08:46.438Z,1004.09
2019-06-07T11:09:46.461Z,1004.05
2019-06-07T11:10:46.431Z,1003.97
2019-06-07T11:11:46.433Z,1003.99
2019-06-07T11:12:46.394Z,1003.92
2019-06-07T11:13:46.404Z,1003.96
2019-06-07T11:14:46.402Z,1004.03
2019-06-07T11:15:46.386Z,1003.94
2019-06-07T11:16:46.375Z,1003.95
2019-06-07T11:17:46.401Z,1003.93
2019-06-07T11:18:46.329Z,1003.87
2019-06-07T11:19:46.341Z,1003.88
2019-06-07T11:20:46.305Z,1003.88
2019-06-07T11:21:46.339Z,1003.95
2019-06-07T11:22:46.288Z,1003.88
2019-06-07T11:23:46.281Z,1003.80
2019-06-07T11:24:46.298Z,1003.74
2019-06-07T11:25:46.251Z,1003.75
2019-06-07T11:26:46.310Z,1003.70
2019-06-07T11:27:46.255Z,1003.71
2019-06-07T11:28:46.231Z,1003.83
2019-06-07T11:29:46.199Z,1003.87
2019-06-07T11:30:46.243Z,1003.88
2019-06-07T11:31:47.596Z,1003.66
2019-06-07T11:32:46.193Z,1003.74
2019-06-07T11:33:46.248Z,1003.73
2019-06-07T11:34:46.163Z,1003.65
2019-06-07T11:35:46.143Z,1003.79
2019-06-07T11:36:46.150Z,1003.67
2019-06-07T11:37:46.118Z,1003.72
2019-06-07T11:38:46.106Z,1003.63
2019-06-07T11:39:46.096Z,1003.65
2019-06-07T11:40:46.106Z,1003.68
2019-06-07T11:41:46.066Z,1003.58
2019-06-07T11:42:46.063Z,1003.64
2019-06-07T11:43:46.091Z,1003.57
2019-06-07T11:44:56.157Z,1003.58
2019-06-07T11:45:47.029Z,1003.53
2019-06-07T11:46:46.039Z,1003.47
2019-06-07T11:47:46.018Z,1003.55
2019-06-07T11:48:45.994Z,1003.50
2019-06-07T11:49:46.005Z,1003.56
2019-06-07T11:50:46.059Z,1003.52
2019-06-07T11:51:45.960Z,1003.45
2019-06-07T11:52:46.585Z,1003.45
2019-06-07T11:53:45.936Z,1003.49
2019-06-07T11:54:48.148Z,1003.47
2019-06-07T11:55:45.954Z,1003.45
2019-06-07T11:56:45.948Z,1003.37
2019-06-07T11:57:45.900Z,1003.27
2019-06-07T11:58:45.904Z,1003.28
2019-06-07T11:59:45.874Z,1003.22
2019-06-07T12:00:45.909Z,1003.16
2019-06-07T12:01:45.861Z,1003.14
2019-06-07T12:02:45.832Z,1003.11
2019-06-07T12:03:45.828Z,1003.12
2019-06-07T12:04:45.923Z,1003.13
2019-06-07T12:05:45.804Z,1003.19
2019-06-07T12:06:45.847Z,1003.15
2019-06-07T12:07:45.787Z,1003.02
2019-06-07T12:08:45.783Z,1003.07
2019-06-07T12:09:55.807Z,1003.01
2019-06-07T12:10:46.776Z,1002.98
2019-06-07T12:11:45.785Z,1002.95
2019-06-07T12:12:45.719Z,1002.85
2019-06-07T12:13:45.778Z,1002.84
2019-06-07T12:14:45.737Z,1002.82